KELP

El Paso International Airport

El Paso, Texas, USA
KELP 141720Z 1418/1518 VRB04KT P6SM SKC FM150300 04005KT P6SM BKN200
Issued Valid From Valid To
Dec-14 @ 17:20 UTC
(4 hours ago)
Dec-14 @ 18:00 UTC
(4 hours ago)
Dec-15 @ 18:00 UTC
(in 20 hours)
Dec-14 @ 18:00 to Dec-15 @ 03:00
KELP 141720Z 1418/1518 VRB04KT P6SM SKC
Wind Visibility Clouds
Variable at 4 knots Greater than 6 miles
  • Clear skies
From Dec-15 @ 03:00 to Dec-15 @ 18:00
FM150300 04005KT P6SM BKN200
Wind Visibility Clouds
40° at 5 knots Greater than 6 miles
  • Broken at 20,000' AGL
KELP 141720Z 1418/1518 VRB04KT P6SM SKC FM150300 04005KT P6SM BKN200
Issued Dec-14 @ 17:20 UTC
(4 hours ago)
Valid From Dec-14 @ 18:00 UTC
(4 hours ago)
Valid To Dec-15 @ 18:00 UTC
(in 20 hours)
Dec-14 @ 18:00 - Dec-15 @ 03:00
Wind Visibility
Variable at 4 knots Greater than 6 miles
Clouds
  • Clear skies
From Dec-15 @ 03:00 - Dec-15 @ 18:00
Wind Visibility
40° at 5 knots Greater than 6 miles
Clouds
  • Broken at 20,000' AGL